createdAt,value
2023-07-02T00:00:58.911Z,25.10
2023-07-02T00:06:02.340Z,25.20
2023-07-02T00:11:07.337Z,25.10
2023-07-02T00:16:11.049Z,25.20
2023-07-02T00:21:14.826Z,25.20
2023-07-02T00:26:19.580Z,25.20
2023-07-02T00:31:23.454Z,25.20
2023-07-02T00:36:26.902Z,25.20
2023-07-02T00:41:32.936Z,25.20
2023-07-02T00:46:36.416Z,25.20
2023-07-02T00:51:39.902Z,25.20
2023-07-02T00:56:47.150Z,25.20
2023-07-02T01:01:52.308Z,25.20
2023-07-02T01:06:58.672Z,25.20
2023-07-02T01:12:09.469Z,25.20
2023-07-02T01:17:13.424Z,25.20
2023-07-02T01:22:18.342Z,25.10
2023-07-02T01:27:23.027Z,25.20
2023-07-02T01:32:26.661Z,25.10
2023-07-02T01:37:38.676Z,25.10
2023-07-02T01:42:43.294Z,25.10
2023-07-02T01:47:46.799Z,25.10
2023-07-02T01:52:51.667Z,25.10
2023-07-02T01:57:55.042Z,25.10
2023-07-02T02:02:58.537Z,25.10
2023-07-02T02:08:03.434Z,25.10
2023-07-02T02:13:06.857Z,25.10
2023-07-02T02:18:10.289Z,25.10
2023-07-02T02:23:15.042Z,25.10
2023-07-02T02:28:18.444Z,25.10
2023-07-02T02:33:24.080Z,25.10
2023-07-02T02:38:29.144Z,25.10
2023-07-02T02:43:32.712Z,25.10
2023-07-02T02:48:36.985Z,25.10
2023-07-02T02:53:41.817Z,25.10
2023-07-02T02:58:46.882Z,25.10
2023-07-02T03:03:50.330Z,25.00
2023-07-02T03:08:55.163Z,24.90
2023-07-02T03:13:58.635Z,24.80
2023-07-02T03:19:02.116Z,24.80
2023-07-02T03:24:08.350Z,24.70
2023-07-02T03:29:12.734Z,24.70
2023-07-02T03:34:16.169Z,24.60
2023-07-02T03:39:21.097Z,24.60
2023-07-02T03:44:24.536Z,24.60
2023-07-02T03:49:28.215Z,24.50
2023-07-02T03:54:32.993Z,24.40
2023-07-02T03:59:37.109Z,24.40
2023-07-02T04:04:40.700Z,24.40
2023-07-02T04:09:45.540Z,24.30
2023-07-02T04:14:49.006Z,24.30
2023-07-02T04:19:55.961Z,24.20
2023-07-02T04:25:02.843Z,24.20
2023-07-02T04:30:11.374Z,24.20
2023-07-02T04:35:14.844Z,24.20
2023-07-02T04:40:19.816Z,24.10
2023-07-02T04:45:23.249Z,24.10
2023-07-02T04:50:26.853Z,24.10
2023-07-02T04:55:31.681Z,24.00
2023-07-02T05:00:35.147Z,24.00
2023-07-02T05:05:38.544Z,24.00
2023-07-02T05:10:43.307Z,24.00
2023-07-02T05:15:47.264Z,24.00
2023-07-02T05:20:50.911Z,24.00
2023-07-02T05:25:55.816Z,24.00
2023-07-02T05:30:59.247Z,24.00
2023-07-02T05:36:02.723Z,24.00
2023-07-02T05:41:07.535Z,24.00
2023-07-02T05:46:10.944Z,23.90
2023-07-02T05:51:14.408Z,23.90
2023-07-02T05:56:19.801Z,23.90
2023-07-02T06:01:23.214Z,23.90
2023-07-02T06:06:26.634Z,24.00
2023-07-02T06:11:31.441Z,24.00
2023-07-02T06:16:35.508Z,24.00
2023-07-02T06:21:39.201Z,24.00
2023-07-02T06:26:44.040Z,24.00
2023-07-02T06:31:47.658Z,24.00
2023-07-02T06:36:51.139Z,24.10
2023-07-02T06:41:55.912Z,24.10
2023-07-02T06:47:05.996Z,24.10
2023-07-02T06:52:09.611Z,24.10
2023-07-02T06:57:15.477Z,24.10
2023-07-02T07:02:19.006Z,24.10
2023-07-02T07:07:22.527Z,24.10
2023-07-02T07:12:27.313Z,24.20
2023-07-02T07:17:30.822Z,24.20
2023-07-02T07:22:35.179Z,24.20
2023-07-02T07:27:40.031Z,24.30
2023-07-02T07:32:43.511Z,24.30
2023-07-02T07:37:47.454Z,24.10
2023-07-02T07:42:52.268Z,23.80
2023-07-02T07:47:55.798Z,23.70
2023-07-02T07:52:59.341Z,23.70
2023-07-02T07:58:04.112Z,23.60
2023-07-02T08:03:07.652Z,23.50
2023-07-02T08:08:11.111Z,23.60
2023-07-02T08:13:15.880Z,23.50
2023-07-02T08:18:19.348Z,23.50
2023-07-02T08:23:22.877Z,23.50
2023-07-02T08:28:27.703Z,23.50
2023-07-02T08:33:31.097Z,23.40
2023-07-02T08:38:34.537Z,23.50
2023-07-02T08:43:39.972Z,23.50
2023-07-02T08:48:43.580Z,23.50
2023-07-02T08:53:47.026Z,23.50
2023-07-02T08:58:51.993Z,23.50
2023-07-02T09:04:01.771Z,23.50
2023-07-02T09:09:08.713Z,23.60
2023-07-02T09:14:13.470Z,23.60
2023-07-02T09:19:18.789Z,23.70
2023-07-02T09:24:24.852Z,23.70
2023-07-02T09:29:33.285Z,23.70
2023-07-02T09:34:41.749Z,23.80
2023-07-02T09:39:45.869Z,23.80
2023-07-02T09:44:54.573Z,23.80
2023-07-02T09:50:06.676Z,23.80
2023-07-02T09:55:12.217Z,23.80
2023-07-02T10:00:18.810Z,23.80
2023-07-02T10:05:30.839Z,23.80
2023-07-02T10:10:34.941Z,23.80
2023-07-02T10:15:41.063Z,23.80
2023-07-02T10:20:44.773Z,23.80
2023-07-02T10:25:48.182Z,23.80
2023-07-02T10:30:54.458Z,23.80
2023-07-02T10:35:58.142Z,23.80
2023-07-02T10:41:02.554Z,23.80
2023-07-02T10:46:07.336Z,23.80
2023-07-02T10:51:14.688Z,23.80
2023-07-02T10:56:21.179Z,23.80
2023-07-02T11:01:28.063Z,23.80
2023-07-02T11:06:33.444Z,23.80
2023-07-02T11:11:36.916Z,23.80
2023-07-02T11:16:41.914Z,23.80
2023-07-02T11:21:55.120Z,23.80
2023-07-02T11:26:59.329Z,23.80
2023-07-02T11:32:12.439Z,23.80
2023-07-02T11:37:15.808Z,23.80
2023-07-02T11:42:19.226Z,23.80
2023-07-02T11:47:23.996Z,23.90
2023-07-02T11:52:27.493Z,23.90
2023-07-02T11:57:30.885Z,23.80
2023-07-02T12:02:35.748Z,23.90
2023-07-02T12:07:39.153Z,23.90
2023-07-02T12:12:42.577Z,23.90
2023-07-02T12:17:47.403Z,23.90
2023-07-02T12:22:50.839Z,23.90
2023-07-02T12:27:54.490Z,23.90
2023-07-02T12:32:59.367Z,23.90
2023-07-02T12:38:04.720Z,23.90
2023-07-02T12:43:08.149Z,24.00
2023-07-02T12:48:13.066Z,23.90
2023-07-02T12:53:16.610Z,24.00
2023-07-02T12:58:20.174Z,24.00
2023-07-02T13:03:26.244Z,24.00
2023-07-02T13:08:29.890Z,24.00
2023-07-02T13:13:33.341Z,24.00
2023-07-02T13:18:38.103Z,24.00
2023-07-02T13:23:41.520Z,24.00
2023-07-02T13:28:47.644Z,24.00
2023-07-02T13:33:52.464Z,24.00
2023-07-02T13:38:55.876Z,24.00
2023-07-02T13:43:59.365Z,24.00
2023-07-02T13:49:04.115Z,24.10
2023-07-02T13:54:07.562Z,24.00
2023-07-02T13:59:12.425Z,24.10
2023-07-02T14:04:18.676Z,24.10
2023-07-02T14:09:22.682Z,24.20
2023-07-02T14:14:27.472Z,24.20
2023-07-02T14:19:30.889Z,24.20
2023-07-02T14:24:35.871Z,24.20
2023-07-02T14:29:40.661Z,24.20
2023-07-02T14:34:44.376Z,24.20
2023-07-02T14:40:01.336Z,24.20
2023-07-02T14:45:11.993Z,24.20
2023-07-02T14:50:17.382Z,24.20
2023-07-02T14:55:22.488Z,24.20
2023-07-02T15:00:27.267Z,24.20
2023-07-02T15:05:30.947Z,24.30
2023-07-02T15:10:34.395Z,24.30
2023-07-02T15:15:41.463Z,24.40
2023-07-02T15:20:46.523Z,24.40
2023-07-02T15:25:53.722Z,24.40
2023-07-02T15:31:03.520Z,24.40
2023-07-02T15:36:10.309Z,24.40
2023-07-02T15:41:16.968Z,24.40
2023-07-02T15:46:22.261Z,24.40
2023-07-02T15:51:26.464Z,24.40
2023-07-02T15:56:33.344Z,24.40
2023-07-02T16:01:40.202Z,24.30
2023-07-02T16:06:43.790Z,24.40
2023-07-02T16:11:47.313Z,24.40
2023-07-02T16:16:55.323Z,24.40
2023-07-02T16:21:59.097Z,24.40
2023-07-02T16:27:03.911Z,24.50
2023-07-02T16:32:14.316Z,24.50
2023-07-02T16:37:18.065Z,24.50
2023-07-02T16:42:22.065Z,24.50
2023-07-02T16:47:27.021Z,24.50
2023-07-02T16:52:30.923Z,24.40
2023-07-02T16:57:34.356Z,24.40
2023-07-02T17:02:39.269Z,24.40
2023-07-02T17:07:42.778Z,24.30
2023-07-02T17:12:46.252Z,24.40
2023-07-02T17:17:52.655Z,24.40
2023-07-02T17:22:56.163Z,24.40
2023-07-02T17:27:59.668Z,24.40
2023-07-02T17:33:04.812Z,24.40
2023-07-02T17:38:08.360Z,24.30
2023-07-02T17:43:11.856Z,24.30
2023-07-02T17:48:16.670Z,24.30
2023-07-02T17:53:21.293Z,24.30
2023-07-02T17:58:25.149Z,24.30
2023-07-02T18:03:30.068Z,24.30
2023-07-02T18:08:33.701Z,24.20
2023-07-02T18:13:37.089Z,24.20
2023-07-02T18:18:41.876Z,24.30
2023-07-02T18:23:45.324Z,24.30
2023-07-02T18:28:48.758Z,24.30
2023-07-02T18:33:53.592Z,24.30
2023-07-02T18:38:57.202Z,24.30
2023-07-02T18:44:02.195Z,24.20
2023-07-02T18:49:07.187Z,24.20
2023-07-02T18:54:10.657Z,24.20
2023-07-02T18:59:14.103Z,24.10
2023-07-02T19:04:18.960Z,24.10
2023-07-02T19:09:22.549Z,24.10
2023-07-02T19:14:27.204Z,24.20
2023-07-02T19:19:32.033Z,24.30
2023-07-02T19:24:35.984Z,24.30
2023-07-02T19:29:39.785Z,24.30
2023-07-02T19:34:48.426Z,24.40
2023-07-02T19:39:52.217Z,24.40
2023-07-02T19:44:56.183Z,24.40
2023-07-02T19:50:02.852Z,24.40
2023-07-02T19:55:11.833Z,24.40
2023-07-02T20:00:16.443Z,24.40
2023-07-02T20:05:21.817Z,24.50
2023-07-02T20:10:25.426Z,24.40
2023-07-02T20:15:28.925Z,24.40
2023-07-02T20:20:34.269Z,24.40
2023-07-02T20:25:50.096Z,24.40
2023-07-02T20:31:05.669Z,24.50
2023-07-02T20:36:16.080Z,24.50
2023-07-02T20:41:19.474Z,24.50
2023-07-02T20:46:24.471Z,24.50
2023-07-02T20:51:31.760Z,24.50
2023-07-02T20:56:35.212Z,24.50
2023-07-02T21:01:38.912Z,24.50
2023-07-02T21:06:43.796Z,24.50
2023-07-02T21:11:49.883Z,24.50
2023-07-02T21:16:53.357Z,24.50
2023-07-02T21:21:58.132Z,24.50
2023-07-02T21:27:01.564Z,24.50
2023-07-02T21:32:05.744Z,24.60
2023-07-02T21:37:10.860Z,24.50
2023-07-02T21:42:14.253Z,24.50
2023-07-02T21:47:17.667Z,24.50
2023-07-02T21:52:22.426Z,24.50
2023-07-02T21:57:29.150Z,24.50
2023-07-02T22:02:32.637Z,24.50
2023-07-02T22:07:37.635Z,24.50
2023-07-02T22:12:41.054Z,24.50
2023-07-02T22:17:44.625Z,24.50
2023-07-02T22:22:50.699Z,24.50
2023-07-02T22:27:57.066Z,24.50
2023-07-02T22:33:00.608Z,24.50
2023-07-02T22:38:05.455Z,24.60
2023-07-02T22:43:08.892Z,24.60
2023-07-02T22:48:12.299Z,24.60
2023-07-02T22:53:17.529Z,24.60
2023-07-02T22:58:20.936Z,24.60
2023-07-02T23:03:24.561Z,24.60
2023-07-02T23:08:29.958Z,24.60
2023-07-02T23:13:33.400Z,24.60
2023-07-02T23:18:36.786Z,24.60
2023-07-02T23:23:43.374Z,24.60
2023-07-02T23:28:53.943Z,24.60
2023-07-02T23:33:57.514Z,24.60
2023-07-02T23:39:02.256Z,24.60
2023-07-02T23:44:06.647Z,24.60
2023-07-02T23:49:10.049Z,24.60
2023-07-02T23:54:14.837Z,24.60
2023-07-02T23:59:18.229Z,24.60
